createdAt,value
2023-10-29T00:00:19.372Z,18.90
2023-10-29T00:02:47.230Z,18.80
2023-10-29T00:05:15.272Z,18.70
2023-10-29T00:07:43.297Z,18.80
2023-10-29T00:10:11.382Z,18.80
2023-10-29T00:12:39.514Z,18.70
2023-10-29T00:15:08.216Z,18.60
2023-10-29T00:17:36.540Z,18.60
2023-10-29T00:20:08.033Z,18.60
2023-10-29T00:22:36.059Z,18.50
2023-10-29T00:25:04.493Z,18.30
2023-10-29T00:27:32.639Z,18.30
2023-10-29T00:30:00.647Z,18.40
2023-10-29T00:32:28.575Z,18.30
2023-10-29T00:34:56.630Z,18.30
2023-10-29T00:37:24.898Z,18.30
2023-10-29T00:39:52.920Z,18.40
2023-10-29T00:42:21.159Z,18.40
2023-10-29T00:44:49.131Z,18.50
2023-10-29T00:47:17.352Z,18.40
2023-10-29T00:49:45.505Z,18.50
2023-10-29T00:52:14.948Z,18.40
2023-10-29T00:54:42.967Z,18.50
2023-10-29T00:57:10.909Z,18.50
2023-10-29T00:59:39.141Z,18.50
2023-10-29T01:02:07.105Z,18.50
2023-10-29T01:04:37.649Z,18.40
2023-10-29T01:07:05.568Z,18.40
2023-10-29T01:09:34.971Z,18.40
2023-10-29T01:12:02.766Z,18.30
2023-10-29T01:14:32.181Z,18.30
2023-10-29T01:17:01.199Z,18.30
2023-10-29T01:19:29.064Z,18.40
2023-10-29T01:21:57.448Z,18.30
2023-10-29T01:24:26.301Z,18.30
2023-10-29T01:26:55.320Z,18.30
2023-10-29T01:29:23.254Z,18.20
2023-10-29T01:31:51.470Z,18.20
2023-10-29T01:34:19.307Z,18.20
2023-10-29T01:36:47.109Z,18.30
2023-10-29T01:39:15.304Z,18.30
2023-10-29T01:41:43.305Z,18.30
2023-10-29T01:44:11.145Z,18.20
2023-10-29T01:46:39.128Z,18.20
2023-10-29T01:49:10.878Z,18.30
2023-10-29T01:51:38.757Z,18.30
2023-10-29T01:54:06.728Z,18.20
2023-10-29T01:56:36.096Z,18.30
2023-10-29T01:59:04.051Z,18.30
2023-10-29T02:01:32.090Z,18.30
2023-10-29T02:04:00.229Z,18.20
2023-10-29T02:06:28.227Z,18.30
2023-10-29T02:08:56.173Z,18.20
2023-10-29T02:11:24.337Z,18.20
2023-10-29T02:13:52.347Z,18.10
2023-10-29T02:16:20.177Z,18.10
2023-10-29T02:18:47.988Z,18.20
2023-10-29T02:21:15.718Z,18.20
2023-10-29T02:23:43.600Z,18.20
2023-10-29T02:26:11.489Z,18.20
2023-10-29T02:28:39.284Z,18.20
2023-10-29T02:31:07.525Z,18.30
2023-10-29T02:33:35.373Z,18.30
2023-10-29T02:36:03.326Z,18.30
2023-10-29T02:38:31.157Z,18.30
2023-10-29T02:40:58.970Z,18.30
2023-10-29T02:43:28.671Z,18.20
2023-10-29T02:45:56.458Z,18.20
2023-10-29T02:48:26.504Z,18.20
2023-10-29T02:50:57.726Z,18.10
2023-10-29T02:53:25.502Z,18.10
2023-10-29T02:55:53.642Z,18.20
2023-10-29T02:58:23.796Z,18.20
2023-10-29T03:00:53.388Z,18.10
2023-10-29T03:03:22.939Z,18.20
2023-10-29T03:05:57.107Z,18.20
2023-10-29T03:08:26.072Z,18.20
2023-10-29T03:10:54.055Z,18.10
2023-10-29T03:13:21.853Z,18.10
2023-10-29T03:15:49.889Z,18.10
2023-10-29T03:18:17.859Z,18.00
2023-10-29T03:20:45.696Z,18.00
2023-10-29T03:23:13.521Z,18.10
2023-10-29T03:25:41.558Z,18.10
2023-10-29T03:28:09.409Z,18.10
2023-10-29T03:30:37.298Z,18.00
2023-10-29T03:33:05.163Z,18.00
2023-10-29T03:35:33.177Z,18.00
2023-10-29T03:38:01.095Z,18.00
2023-10-29T03:40:29.267Z,18.00
2023-10-29T03:42:57.132Z,18.00
2023-10-29T03:45:24.948Z,18.00
2023-10-29T03:47:52.917Z,18.00
2023-10-29T03:50:20.858Z,18.10
2023-10-29T03:52:48.738Z,18.00
2023-10-29T03:55:16.565Z,18.00
2023-10-29T03:57:44.400Z,18.00
2023-10-29T04:00:12.688Z,18.10
2023-10-29T04:02:40.595Z,18.00
2023-10-29T04:05:10.330Z,18.00
2023-10-29T04:07:41.329Z,18.00
2023-10-29T04:10:09.736Z,18.00
2023-10-29T04:12:37.466Z,18.00
2023-10-29T04:15:07.017Z,17.90
2023-10-29T04:17:35.454Z,17.90
2023-10-29T04:20:03.273Z,17.90
2023-10-29T04:22:30.983Z,17.90
2023-10-29T04:24:58.670Z,17.60
2023-10-29T04:27:26.359Z,17.50
2023-10-29T04:29:54.287Z,17.50
2023-10-29T04:32:22.611Z,17.50
2023-10-29T04:34:50.296Z,17.50
2023-10-29T04:37:17.995Z,17.50
2023-10-29T04:39:47.323Z,17.60
2023-10-29T04:42:15.136Z,17.50
2023-10-29T04:44:44.160Z,17.60
2023-10-29T04:47:12.484Z,17.70
2023-10-29T04:49:40.438Z,17.60
2023-10-29T04:52:08.299Z,17.70
2023-10-29T04:54:36.138Z,17.70
2023-10-29T04:57:04.208Z,17.70
2023-10-29T04:59:32.177Z,17.50
2023-10-29T05:01:59.963Z,17.50
2023-10-29T05:04:27.755Z,17.50
2023-10-29T05:06:55.799Z,17.60
2023-10-29T05:09:23.594Z,17.40
2023-10-29T05:11:51.443Z,17.30
2023-10-29T05:14:19.617Z,17.40
2023-10-29T05:16:47.537Z,17.40
2023-10-29T05:19:15.487Z,17.40
2023-10-29T05:21:43.282Z,17.60
2023-10-29T05:24:11.291Z,17.70
2023-10-29T05:26:39.055Z,17.70
2023-10-29T05:29:06.791Z,17.70
2023-10-29T05:31:34.933Z,17.70
2023-10-29T05:34:02.934Z,17.70
2023-10-29T05:36:30.646Z,17.70
2023-10-29T05:38:58.677Z,17.60
2023-10-29T05:41:26.825Z,17.50
2023-10-29T05:43:54.665Z,17.70
2023-10-29T05:46:24.246Z,17.60
2023-10-29T05:48:52.368Z,17.50
2023-10-29T05:51:21.354Z,17.50
2023-10-29T05:53:49.076Z,17.50
2023-10-29T05:56:19.746Z,17.60
2023-10-29T05:58:47.649Z,17.50
2023-10-29T06:01:15.629Z,17.50
2023-10-29T06:03:43.656Z,17.50
2023-10-29T06:06:11.577Z,17.40
2023-10-29T06:08:39.441Z,17.40
2023-10-29T06:11:07.389Z,17.30
2023-10-29T06:13:35.363Z,17.30
2023-10-29T06:16:09.044Z,17.40
2023-10-29T06:18:37.323Z,17.40
2023-10-29T06:21:05.447Z,17.40
2023-10-29T06:23:33.649Z,17.40
2023-10-29T06:26:02.193Z,17.30
2023-10-29T06:28:30.151Z,17.40
2023-10-29T06:30:59.523Z,17.40
2023-10-29T06:33:27.517Z,17.50
2023-10-29T06:35:59.347Z,17.50
2023-10-29T06:38:27.375Z,17.70
2023-10-29T06:40:55.377Z,17.80
2023-10-29T06:43:23.618Z,17.90
2023-10-29T06:45:51.446Z,18.00
2023-10-29T06:48:19.591Z,18.10
2023-10-29T06:50:47.528Z,18.10
2023-10-29T06:53:16.299Z,18.10
2023-10-29T06:55:45.044Z,18.20
2023-10-29T06:58:12.888Z,18.30
2023-10-29T07:00:41.725Z,18.30
2023-10-29T07:03:09.767Z,18.30
2023-10-29T07:05:38.015Z,18.40
2023-10-29T07:08:06.157Z,18.40
2023-10-29T07:10:34.075Z,18.40
2023-10-29T07:13:01.936Z,18.40
2023-10-29T07:15:29.994Z,18.50
2023-10-29T07:17:58.334Z,18.60
2023-10-29T07:20:26.211Z,18.70
2023-10-29T07:22:54.101Z,18.60
2023-10-29T07:25:22.314Z,18.50
2023-10-29T07:27:50.179Z,18.30
2023-10-29T07:30:18.042Z,18.40
2023-10-29T07:32:45.966Z,18.50
2023-10-29T07:35:13.855Z,18.70
2023-10-29T07:37:41.640Z,18.70
2023-10-29T07:40:10.102Z,18.70
2023-10-29T07:42:37.866Z,18.80
2023-10-29T07:45:06.151Z,18.90
2023-10-29T07:47:34.228Z,19.10
2023-10-29T07:50:02.180Z,19.10
2023-10-29T07:52:29.992Z,19.20
2023-10-29T07:54:57.713Z,19.20
2023-10-29T07:57:25.950Z,19.20
2023-10-29T07:59:54.449Z,19.30
2023-10-29T08:02:22.391Z,19.50
2023-10-29T08:04:50.527Z,19.50
2023-10-29T08:07:18.687Z,19.50
2023-10-29T08:09:46.577Z,19.50
2023-10-29T08:12:14.456Z,19.60
2023-10-29T08:14:42.286Z,19.70
2023-10-29T08:17:10.224Z,19.80
2023-10-29T08:19:38.119Z,19.90
2023-10-29T08:22:06.058Z,20.20
2023-10-29T08:24:34.041Z,20.50
2023-10-29T08:27:02.097Z,20.60
2023-10-29T08:29:30.074Z,20.80
2023-10-29T08:31:57.904Z,20.80
2023-10-29T08:34:26.423Z,20.80
2023-10-29T08:36:54.346Z,20.90
2023-10-29T08:39:23.787Z,21.00
2023-10-29T08:41:53.034Z,21.10
2023-10-29T08:44:21.217Z,21.40
2023-10-29T08:46:49.110Z,21.60
2023-10-29T08:49:17.156Z,21.80
2023-10-29T08:51:45.096Z,22.10
2023-10-29T08:54:13.034Z,22.20
2023-10-29T08:56:40.921Z,22.40
2023-10-29T08:59:11.201Z,22.80
2023-10-29T09:01:39.133Z,23.00
2023-10-29T09:04:07.157Z,23.30
2023-10-29T09:06:36.518Z,23.50
2023-10-29T09:09:04.516Z,23.80
2023-10-29T09:11:33.211Z,24.00
2023-10-29T09:14:02.560Z,24.20
2023-10-29T09:16:30.571Z,24.20
2023-10-29T09:18:58.312Z,24.20
2023-10-29T09:21:26.395Z,24.10
2023-10-29T09:23:54.323Z,24.00
2023-10-29T09:26:22.156Z,23.80
2023-10-29T09:28:50.057Z,23.70
2023-10-29T09:31:19.183Z,23.50
2023-10-29T09:33:48.588Z,23.70
2023-10-29T09:36:16.496Z,23.90
2023-10-29T09:38:44.534Z,23.90
2023-10-29T09:41:12.365Z,23.80
2023-10-29T09:43:44.213Z,23.70
2023-10-29T09:46:13.194Z,23.80
2023-10-29T09:48:46.909Z,23.80
2023-10-29T09:51:17.680Z,24.00
2023-10-29T09:53:47.582Z,24.20
2023-10-29T09:56:16.055Z,24.20
2023-10-29T09:58:44.197Z,24.30
2023-10-29T10:01:12.367Z,24.50
2023-10-29T10:03:41.021Z,24.70
2023-10-29T10:06:09.545Z,24.80
2023-10-29T10:08:37.276Z,24.80
2023-10-29T10:11:05.172Z,24.70
2023-10-29T10:13:43.406Z,24.80
2023-10-29T10:16:16.752Z,24.90
2023-10-29T10:19:01.006Z,24.80
2023-10-29T10:21:45.402Z,24.90
2023-10-29T10:24:13.356Z,25.20
2023-10-29T10:26:42.469Z,25.30
2023-10-29T10:29:11.579Z,25.20
2023-10-29T10:31:39.543Z,25.20
2023-10-29T10:34:25.562Z,25.20
2023-10-29T10:37:04.321Z,25.10
2023-10-29T10:39:33.764Z,25.30
2023-10-29T10:42:04.486Z,25.30
2023-10-29T10:44:32.992Z,25.40
2023-10-29T10:47:01.692Z,25.40
2023-10-29T10:49:33.213Z,25.40
2023-10-29T10:52:03.111Z,25.50
2023-10-29T10:54:33.419Z,25.50
2023-10-29T10:57:01.436Z,25.40
2023-10-29T10:59:29.899Z,25.50
2023-10-29T11:01:57.889Z,25.50
2023-10-29T11:04:28.213Z,25.40
2023-10-29T11:06:57.503Z,25.40
2023-10-29T11:09:26.287Z,25.30
2023-10-29T11:11:57.710Z,25.30
2023-10-29T11:14:27.205Z,25.50
2023-10-29T11:16:59.615Z,25.50
2023-10-29T11:19:45.769Z,25.60
2023-10-29T11:22:30.954Z,25.50
2023-10-29T11:25:10.321Z,25.50
2023-10-29T11:27:46.082Z,25.20
2023-10-29T11:30:22.900Z,25.20
2023-10-29T11:33:14.595Z,25.20
2023-10-29T11:35:43.738Z,25.40
2023-10-29T11:38:32.489Z,25.50
2023-10-29T11:41:00.717Z,25.50
2023-10-29T11:43:29.158Z,25.60
2023-10-29T11:45:57.988Z,25.70
2023-10-29T11:48:27.290Z,25.70
2023-10-29T11:51:18.368Z,25.60
2023-10-29T11:53:46.228Z,25.60
2023-10-29T11:56:15.422Z,25.60
2023-10-29T11:58:43.316Z,25.80
2023-10-29T12:01:12.145Z,25.70
2023-10-29T12:03:40.342Z,25.80
2023-10-29T12:06:08.712Z,25.80
2023-10-29T12:08:36.394Z,25.80
2023-10-29T12:11:04.259Z,25.70
2023-10-29T12:13:45.683Z,25.70
2023-10-29T12:16:14.458Z,25.70
2023-10-29T12:18:43.360Z,25.80
2023-10-29T12:21:12.411Z,25.80
2023-10-29T12:23:40.847Z,25.70
2023-10-29T12:26:12.376Z,25.90
2023-10-29T12:28:40.527Z,25.90
2023-10-29T12:31:27.169Z,25.80
2023-10-29T12:34:00.053Z,25.80
2023-10-29T12:36:28.641Z,25.90
2023-10-29T12:38:56.691Z,25.90
2023-10-29T12:41:29.162Z,25.90
2023-10-29T12:43:57.549Z,25.90
2023-10-29T12:46:26.408Z,26.00
2023-10-29T12:49:04.160Z,26.00
2023-10-29T12:51:36.206Z,25.90
2023-10-29T12:54:25.172Z,26.00
2023-10-29T12:57:00.199Z,26.20
2023-10-29T12:59:32.149Z,26.10
2023-10-29T13:02:07.853Z,26.00
2023-10-29T13:04:38.234Z,26.00
2023-10-29T13:07:13.255Z,25.90
2023-10-29T13:09:42.529Z,25.90
2023-10-29T13:12:12.150Z,25.90
2023-10-29T13:14:41.077Z,25.80
2023-10-29T13:17:09.421Z,25.70
2023-10-29T13:19:37.288Z,25.60
2023-10-29T13:22:07.062Z,25.50
2023-10-29T13:24:34.858Z,25.30
2023-10-29T13:27:03.301Z,25.40
2023-10-29T13:29:31.025Z,25.60
2023-10-29T13:32:00.088Z,25.70
2023-10-29T13:34:28.257Z,25.70
2023-10-29T13:36:56.078Z,25.80
2023-10-29T13:39:23.923Z,26.00
2023-10-29T13:41:51.797Z,25.90
2023-10-29T13:44:19.603Z,26.00
2023-10-29T13:46:47.448Z,26.00
2023-10-29T13:49:16.132Z,26.00
2023-10-29T13:51:46.074Z,25.90
2023-10-29T13:54:14.162Z,25.90
2023-10-29T13:56:42.715Z,25.90
2023-10-29T13:59:10.649Z,25.90
2023-10-29T14:01:38.411Z,25.90
2023-10-29T14:04:07.024Z,25.90
2023-10-29T14:06:35.168Z,25.90
2023-10-29T14:09:04.118Z,25.90
2023-10-29T14:11:32.122Z,25.70
2023-10-29T14:14:00.124Z,25.80
2023-10-29T14:16:42.541Z,25.90
2023-10-29T14:19:11.443Z,25.80
2023-10-29T14:21:39.244Z,25.90
2023-10-29T14:24:09.234Z,26.00
2023-10-29T14:26:37.786Z,26.10
2023-10-29T14:29:06.346Z,26.10
2023-10-29T14:31:37.491Z,26.00
2023-10-29T14:34:05.896Z,25.90
2023-10-29T14:36:34.061Z,25.80
2023-10-29T14:39:02.059Z,25.70
2023-10-29T14:41:30.075Z,25.70
2023-10-29T14:43:57.901Z,25.70
2023-10-29T14:46:25.759Z,25.70
2023-10-29T14:48:53.509Z,25.50
2023-10-29T14:51:21.203Z,25.60
2023-10-29T14:53:49.061Z,25.50
2023-10-29T14:56:17.170Z,25.40
2023-10-29T14:58:45.044Z,25.30
2023-10-29T15:01:13.169Z,25.30
2023-10-29T15:03:41.145Z,25.30
2023-10-29T15:06:10.777Z,25.40
2023-10-29T15:08:39.100Z,25.20
2023-10-29T15:11:07.231Z,25.10
2023-10-29T15:13:46.378Z,25.00
2023-10-29T15:16:16.097Z,25.10
2023-10-29T15:18:44.184Z,24.90
2023-10-29T15:21:18.177Z,24.90
2023-10-29T15:23:46.182Z,24.70
2023-10-29T15:26:16.085Z,24.80
2023-10-29T15:28:44.123Z,24.70
2023-10-29T15:31:12.632Z,24.50
2023-10-29T15:33:40.490Z,24.50
2023-10-29T15:36:10.116Z,24.50
2023-10-29T15:38:38.963Z,24.50
2023-10-29T15:41:08.266Z,24.40
2023-10-29T15:43:37.502Z,24.30
2023-10-29T15:46:06.587Z,24.30
2023-10-29T15:48:34.721Z,24.20
2023-10-29T15:51:02.642Z,24.30
2023-10-29T15:53:30.473Z,24.10
2023-10-29T15:56:00.030Z,24.10
2023-10-29T15:58:28.122Z,24.20
2023-10-29T16:00:56.241Z,24.10
2023-10-29T16:03:24.066Z,23.90
2023-10-29T16:05:52.032Z,23.80
2023-10-29T16:08:19.969Z,23.80
2023-10-29T16:10:48.026Z,23.90
2023-10-29T16:13:15.744Z,23.80
2023-10-29T16:15:43.674Z,23.70
2023-10-29T16:18:11.850Z,23.50
2023-10-29T16:20:39.672Z,23.60
2023-10-29T16:23:07.497Z,23.50
2023-10-29T16:25:35.332Z,23.50
2023-10-29T16:28:03.089Z,23.50
2023-10-29T16:30:31.060Z,23.40
2023-10-29T16:33:02.323Z,23.30
2023-10-29T16:35:30.395Z,23.30
2023-10-29T16:37:58.276Z,23.20
2023-10-29T16:40:26.071Z,23.20
2023-10-29T16:42:53.882Z,23.20
2023-10-29T16:45:23.102Z,23.20
2023-10-29T16:47:51.253Z,23.10
2023-10-29T16:50:19.252Z,23.00
2023-10-29T16:52:47.156Z,23.00
2023-10-29T16:55:15.611Z,22.90
2023-10-29T16:57:44.043Z,23.00
2023-10-29T17:00:13.520Z,22.80
2023-10-29T17:02:42.026Z,22.70
2023-10-29T17:05:10.251Z,22.70
2023-10-29T17:07:38.120Z,22.60
2023-10-29T17:10:06.348Z,22.60
2023-10-29T17:12:34.402Z,22.50
2023-10-29T17:15:02.262Z,22.60
2023-10-29T17:17:30.230Z,22.50
2023-10-29T17:19:58.220Z,22.50
2023-10-29T17:22:28.802Z,22.40
2023-10-29T17:24:58.294Z,22.40
2023-10-29T17:27:26.548Z,22.30
2023-10-29T17:29:56.311Z,22.30
2023-10-29T17:32:24.151Z,22.30
2023-10-29T17:34:52.062Z,22.20
2023-10-29T17:37:21.025Z,22.10
2023-10-29T17:39:49.046Z,22.10
2023-10-29T17:42:16.996Z,22.10
2023-10-29T17:44:45.724Z,22.10
2023-10-29T17:47:13.314Z,22.10
2023-10-29T17:49:41.403Z,22.00
2023-10-29T17:52:09.149Z,22.00
2023-10-29T17:54:37.136Z,21.80
2023-10-29T17:57:05.084Z,21.90
2023-10-29T17:59:33.043Z,21.90
2023-10-29T18:02:00.874Z,21.80
2023-10-29T18:04:28.754Z,21.80
2023-10-29T18:06:59.080Z,21.60
2023-10-29T18:09:27.662Z,21.60
2023-10-29T18:11:57.380Z,21.60
2023-10-29T18:14:44.008Z,21.70
2023-10-29T18:17:12.004Z,21.60
2023-10-29T18:19:39.950Z,21.60
2023-10-29T18:22:26.670Z,21.60
2023-10-29T18:24:54.387Z,21.60
2023-10-29T18:27:22.284Z,21.60
2023-10-29T18:29:50.037Z,21.60
2023-10-29T18:32:18.112Z,21.60
2023-10-29T18:34:46.325Z,21.60
2023-10-29T18:37:14.287Z,21.50
2023-10-29T18:39:42.245Z,21.40
2023-10-29T18:42:10.336Z,21.40
2023-10-29T18:44:38.337Z,21.40
2023-10-29T18:47:09.254Z,21.40
2023-10-29T18:49:37.112Z,21.40
2023-10-29T18:52:06.041Z,21.30
2023-10-29T18:54:37.434Z,21.30
2023-10-29T18:57:06.122Z,21.40
2023-10-29T18:59:34.718Z,21.30
2023-10-29T19:02:03.152Z,21.20
2023-10-29T19:04:31.059Z,21.20
2023-10-29T19:06:59.461Z,21.20
2023-10-29T19:09:27.504Z,21.20
2023-10-29T19:11:55.513Z,21.10
2023-10-29T19:14:25.026Z,21.10
2023-10-29T19:16:53.120Z,21.10
2023-10-29T19:19:21.018Z,21.00
2023-10-29T19:21:49.094Z,21.00
2023-10-29T19:24:20.039Z,20.90
2023-10-29T19:26:48.086Z,21.00
2023-10-29T19:29:16.052Z,20.90
2023-10-29T19:31:44.015Z,20.90
2023-10-29T19:34:12.129Z,20.90
2023-10-29T19:36:40.142Z,20.90
2023-10-29T19:39:08.154Z,20.80
2023-10-29T19:41:36.587Z,20.80
2023-10-29T19:44:04.716Z,20.80
2023-10-29T19:46:32.689Z,20.90
2023-10-29T19:49:02.221Z,20.80
2023-10-29T19:51:30.138Z,20.70
2023-10-29T19:53:58.035Z,20.70
2023-10-29T19:56:26.606Z,20.80
2023-10-29T19:58:54.668Z,20.80
2023-10-29T20:01:23.425Z,20.80
2023-10-29T20:03:51.726Z,20.60
2023-10-29T20:06:20.021Z,20.70
2023-10-29T20:08:48.936Z,20.70
2023-10-29T20:11:17.087Z,20.70
2023-10-29T20:13:50.229Z,20.60
2023-10-29T20:16:18.230Z,20.50
2023-10-29T20:18:46.553Z,20.50
2023-10-29T20:21:19.197Z,20.50
2023-10-29T20:23:48.735Z,20.50
2023-10-29T20:26:18.901Z,20.70
2023-10-29T20:28:53.491Z,20.60
2023-10-29T20:31:22.113Z,20.30
2023-10-29T20:33:51.788Z,20.30
2023-10-29T20:36:20.137Z,20.20
2023-10-29T20:38:48.277Z,20.30
2023-10-29T20:41:16.261Z,20.30
2023-10-29T20:43:45.149Z,20.40
2023-10-29T20:46:13.449Z,20.40
2023-10-29T20:48:41.654Z,20.40
2023-10-29T20:51:09.535Z,20.40
2023-10-29T20:53:37.476Z,20.40
2023-10-29T20:56:06.239Z,20.40
2023-10-29T20:58:34.271Z,20.40
2023-10-29T21:01:06.026Z,20.30
2023-10-29T21:03:34.442Z,20.30
2023-10-29T21:06:02.506Z,20.20
2023-10-29T21:08:30.451Z,20.20
2023-10-29T21:11:15.138Z,20.20
2023-10-29T21:13:43.654Z,20.20
2023-10-29T21:16:11.708Z,20.30
2023-10-29T21:18:39.811Z,20.30
2023-10-29T21:21:08.114Z,20.20
2023-10-29T21:23:36.047Z,20.10
2023-10-29T21:26:04.098Z,20.10
2023-10-29T21:28:32.238Z,20.20
2023-10-29T21:31:00.277Z,20.10
2023-10-29T21:33:28.810Z,20.10
2023-10-29T21:35:56.986Z,20.10
2023-10-29T21:38:25.089Z,20.00
2023-10-29T21:40:53.168Z,19.90
2023-10-29T21:43:21.133Z,19.80
2023-10-29T21:45:49.206Z,19.80
2023-10-29T21:48:17.263Z,19.70
2023-10-29T21:50:57.963Z,19.80
2023-10-29T21:53:26.663Z,19.80
2023-10-29T21:55:57.576Z,19.80
2023-10-29T21:58:25.519Z,19.80
2023-10-29T22:00:54.353Z,19.90
2023-10-29T22:03:22.583Z,19.80
2023-10-29T22:05:57.120Z,19.70
2023-10-29T22:08:26.411Z,19.80
2023-10-29T22:10:59.341Z,19.70
2023-10-29T22:13:33.104Z,19.60
2023-10-29T22:16:10.107Z,19.70
2023-10-29T22:18:39.060Z,19.70
2023-10-29T22:21:09.123Z,19.70
2023-10-29T22:23:38.167Z,19.90
2023-10-29T22:26:10.081Z,19.80
2023-10-29T22:28:39.092Z,19.80
2023-10-29T22:31:07.449Z,19.80
2023-10-29T22:33:35.389Z,19.90
2023-10-29T22:36:05.839Z,19.90
2023-10-29T22:38:34.076Z,19.90
2023-10-29T22:41:07.042Z,19.90
2023-10-29T22:43:35.593Z,19.90
2023-10-29T22:46:04.434Z,20.00
2023-10-29T22:48:32.541Z,20.10
2023-10-29T22:51:04.338Z,20.00
2023-10-29T22:53:32.375Z,20.00
2023-10-29T22:56:01.807Z,20.10
2023-10-29T22:58:30.048Z,20.20
2023-10-29T23:00:58.279Z,20.20
2023-10-29T23:03:29.344Z,20.20
2023-10-29T23:06:02.555Z,20.20
2023-10-29T23:08:30.648Z,20.10
2023-10-29T23:10:59.029Z,20.20
2023-10-29T23:13:27.028Z,20.10
2023-10-29T23:15:56.830Z,20.00
2023-10-29T23:18:29.069Z,20.00
2023-10-29T23:20:57.058Z,19.90
2023-10-29T23:23:25.642Z,20.00
2023-10-29T23:25:53.653Z,20.00
2023-10-29T23:28:34.244Z,20.00
2023-10-29T23:31:06.851Z,20.00
2023-10-29T23:33:34.705Z,20.10
2023-10-29T23:36:02.750Z,20.00
2023-10-29T23:38:30.912Z,20.10
2023-10-29T23:40:59.656Z,20.10
2023-10-29T23:43:28.918Z,20.10
2023-10-29T23:45:56.715Z,20.10
2023-10-29T23:48:25.657Z,20.20
2023-10-29T23:50:53.734Z,20.20
2023-10-29T23:53:21.581Z,20.20
2023-10-29T23:55:49.368Z,20.20
2023-10-29T23:58:20.636Z,20.30
